createdAt,value
2022-10-18T00:02:02.174Z,100.00
2022-10-18T00:04:36.970Z,99.74
2022-10-18T00:09:56.835Z,99.52
2022-10-18T00:15:13.356Z,100.00
2022-10-18T00:17:47.301Z,99.55
2022-10-18T00:20:17.067Z,99.88
2022-10-18T00:22:46.603Z,99.50
2022-10-18T00:25:21.263Z,99.74
2022-10-18T00:28:04.844Z,99.74
2022-10-18T00:33:19.897Z,99.94
2022-10-18T00:35:53.250Z,99.92
2022-10-18T00:38:26.283Z,99.60
2022-10-18T00:40:54.948Z,100.00
2022-10-18T00:43:23.175Z,99.56
2022-10-18T00:45:58.237Z,99.57
2022-10-18T00:48:48.685Z,99.95
2022-10-18T00:51:23.027Z,99.51
2022-10-18T00:53:56.324Z,99.52
2022-10-18T00:56:45.305Z,99.20
2022-10-18T00:59:22.279Z,98.85
2022-10-18T01:01:56.610Z,98.91
2022-10-18T01:04:32.444Z,99.32
2022-10-18T01:07:25.970Z,98.87
2022-10-18T01:10:05.346Z,99.40
2022-10-18T01:12:50.863Z,98.81
2022-10-18T01:15:51.954Z,98.41
2022-10-18T01:18:31.967Z,99.02
2022-10-18T01:21:30.541Z,98.76
2022-10-18T01:24:47.637Z,98.18
2022-10-18T01:27:51.762Z,98.44
2022-10-18T01:31:00.046Z,98.03
2022-10-18T01:33:54.869Z,98.28
2022-10-18T01:36:30.183Z,98.52
2022-10-18T01:39:05.800Z,98.56
2022-10-18T01:41:38.463Z,98.65
2022-10-18T01:44:11.946Z,98.28
2022-10-18T01:46:44.153Z,98.58
2022-10-18T01:49:21.553Z,98.63
2022-10-18T01:51:54.110Z,98.50
2022-10-18T01:54:30.404Z,98.62
2022-10-18T01:57:09.525Z,98.46
2022-10-18T02:00:13.034Z,98.51
2022-10-18T02:03:04.689Z,98.61
2022-10-18T02:05:50.793Z,98.33
2022-10-18T02:08:31.815Z,98.02
2022-10-18T02:11:05.516Z,98.33
2022-10-18T02:16:32.613Z,98.41
2022-10-18T02:19:30.859Z,98.64
2022-10-18T02:22:02.074Z,98.42
2022-10-18T02:24:39.296Z,98.87
2022-10-18T02:27:21.925Z,98.13
2022-10-18T02:29:51.806Z,98.42
2022-10-18T02:32:33.445Z,98.06
2022-10-18T02:35:15.615Z,97.87
2022-10-18T02:37:46.699Z,98.40
2022-10-18T02:40:15.819Z,98.20
2022-10-18T02:42:49.939Z,98.61
2022-10-18T02:45:25.543Z,98.69
2022-10-18T02:47:56.850Z,98.27
2022-10-18T02:50:42.837Z,98.44
2022-10-18T02:53:27.604Z,98.70
2022-10-18T02:56:03.940Z,99.02
2022-10-18T02:58:32.827Z,98.42
2022-10-18T03:01:07.338Z,99.27
2022-10-18T03:03:41.679Z,99.02
2022-10-18T03:06:11.471Z,99.60
2022-10-18T03:08:41.297Z,98.94
2022-10-18T03:11:17.059Z,99.58
2022-10-18T03:13:51.388Z,99.34
2022-10-18T03:16:33.783Z,99.35
2022-10-18T03:19:02.486Z,99.72
2022-10-18T03:21:32.430Z,99.58
2022-10-18T03:24:04.146Z,99.66
2022-10-18T03:26:35.330Z,99.70
2022-10-18T03:29:04.350Z,100.00
2022-10-18T03:31:33.879Z,99.99
2022-10-18T03:34:18.719Z,100.00
2022-10-18T03:36:52.766Z,100.00
2022-10-18T03:39:27.568Z,100.00
2022-10-18T03:42:07.405Z,100.00
2022-10-18T03:44:37.092Z,100.00
2022-10-18T03:47:09.811Z,100.00
2022-10-18T03:49:41.717Z,100.00
2022-10-18T03:52:11.341Z,100.00
2022-10-18T03:54:46.022Z,100.00
2022-10-18T03:57:29.729Z,100.00
2022-10-18T04:00:21.787Z,100.00
2022-10-18T04:03:01.803Z,100.00
2022-10-18T04:05:31.208Z,100.00
2022-10-18T04:08:08.554Z,100.00
2022-10-18T04:10:40.025Z,100.00
2022-10-18T04:13:11.238Z,100.00
2022-10-18T04:15:46.088Z,100.00
2022-10-18T04:18:14.697Z,100.00
2022-10-18T04:20:52.473Z,100.00
2022-10-18T04:23:23.791Z,100.00
2022-10-18T04:26:04.366Z,100.00
2022-10-18T04:28:35.041Z,100.00
2022-10-18T04:31:07.396Z,100.00
2022-10-18T04:33:42.466Z,100.00
2022-10-18T04:36:13.398Z,100.00
2022-10-18T04:42:01.426Z,100.00
2022-10-18T04:44:31.352Z,100.00
2022-10-18T04:47:10.547Z,100.00
2022-10-18T04:49:40.947Z,100.00
2022-10-18T04:52:10.578Z,100.00
2022-10-18T04:54:41.613Z,100.00
2022-10-18T04:57:23.496Z,100.00
2022-10-18T05:00:04.078Z,100.00
2022-10-18T05:02:34.755Z,100.00
2022-10-18T05:05:13.213Z,100.00
2022-10-18T05:07:51.518Z,100.00
2022-10-18T05:10:24.597Z,100.00
2022-10-18T05:12:59.076Z,100.00
2022-10-18T05:15:33.552Z,99.88
2022-10-18T05:18:04.005Z,100.00
2022-10-18T05:20:34.003Z,100.00
2022-10-18T05:23:11.475Z,100.00
2022-10-18T05:25:47.398Z,100.00
2022-10-18T05:28:38.865Z,100.00
2022-10-18T05:31:12.688Z,100.00
2022-10-18T05:33:42.283Z,100.00
2022-10-18T05:36:13.424Z,100.00
2022-10-18T05:41:37.414Z,100.00
2022-10-18T05:44:21.672Z,100.00
2022-10-18T05:46:52.583Z,100.00
2022-10-18T05:52:08.927Z,100.00
2022-10-18T05:54:38.202Z,100.00
2022-10-18T05:57:13.867Z,100.00
2022-10-18T05:59:46.481Z,100.00
2022-10-18T06:02:22.288Z,100.00
2022-10-18T06:04:56.852Z,99.97
2022-10-18T06:07:26.918Z,100.00
2022-10-18T06:09:57.172Z,100.00
2022-10-18T06:12:36.002Z,100.00
2022-10-18T06:15:08.068Z,100.00
2022-10-18T06:17:39.543Z,99.70
2022-10-18T06:20:11.677Z,100.00
2022-10-18T06:22:40.316Z,100.00
2022-10-18T06:27:55.904Z,99.70
2022-10-18T06:30:34.978Z,100.00
2022-10-18T06:33:08.904Z,100.00
2022-10-18T06:35:38.211Z,100.00
2022-10-18T06:38:08.015Z,99.99
2022-10-18T06:40:38.283Z,100.00
2022-10-18T06:43:20.635Z,100.00
2022-10-18T06:45:52.520Z,100.00
2022-10-18T06:48:27.640Z,100.00
2022-10-18T06:50:59.629Z,100.00
2022-10-18T06:53:34.406Z,99.66
2022-10-18T06:56:07.611Z,100.00
2022-10-18T06:58:39.451Z,100.00
2022-10-18T07:01:14.898Z,100.00
2022-10-18T07:03:54.198Z,100.00
2022-10-18T07:06:26.004Z,100.00
2022-10-18T07:08:57.182Z,99.88
2022-10-18T07:14:20.507Z,100.00
2022-10-18T07:16:50.435Z,100.00
2022-10-18T07:19:38.430Z,100.00
2022-10-18T07:22:09.034Z,99.66
2022-10-18T07:24:53.269Z,99.83
2022-10-18T07:27:41.430Z,99.96
2022-10-18T07:30:12.700Z,99.72
2022-10-18T07:32:50.456Z,99.43
2022-10-18T07:35:37.667Z,99.37
2022-10-18T07:38:13.444Z,100.00
2022-10-18T07:40:49.796Z,99.63
2022-10-18T07:43:26.088Z,100.00
2022-10-18T07:46:01.015Z,99.91
2022-10-18T07:48:40.269Z,99.20
2022-10-18T07:51:09.455Z,100.00
2022-10-18T07:53:39.405Z,100.00
2022-10-18T07:56:17.003Z,99.52
2022-10-18T07:58:46.240Z,99.57
2022-10-18T08:01:20.409Z,99.03
2022-10-18T08:03:55.247Z,99.28
2022-10-18T08:09:23.683Z,100.00
2022-10-18T08:11:54.053Z,99.77
2022-10-18T08:14:28.749Z,99.73
2022-10-18T08:17:04.986Z,99.55
2022-10-18T08:22:24.273Z,99.43
2022-10-18T08:25:11.621Z,99.55
2022-10-18T08:28:37.877Z,99.94
2022-10-18T08:31:14.169Z,99.42
2022-10-18T08:33:49.209Z,99.17
2022-10-18T08:36:19.543Z,99.53
2022-10-18T08:38:55.394Z,99.00
2022-10-18T08:41:53.917Z,98.78
2022-10-18T08:47:17.039Z,99.20
2022-10-18T08:49:54.867Z,98.33
2022-10-18T08:52:34.422Z,98.66
2022-10-18T08:55:12.278Z,98.11
2022-10-18T08:57:41.598Z,98.41
2022-10-18T09:00:38.942Z,98.31
2022-10-18T09:03:25.598Z,98.41
2022-10-18T09:06:22.700Z,98.09
2022-10-18T09:09:24.006Z,98.81
2022-10-18T09:15:14.889Z,99.31
2022-10-18T09:17:59.820Z,98.83
2022-10-18T09:20:36.629Z,99.26
2022-10-18T09:23:20.076Z,98.99
2022-10-18T09:25:50.915Z,99.23
2022-10-18T09:28:39.285Z,99.30
2022-10-18T09:31:17.247Z,98.97
2022-10-18T09:33:53.873Z,99.07
2022-10-18T09:36:25.692Z,98.89
2022-10-18T09:39:00.760Z,98.72
2022-10-18T09:41:37.431Z,98.79
2022-10-18T09:44:14.474Z,98.57
2022-10-18T09:46:47.746Z,98.94
2022-10-18T09:49:20.792Z,98.55
2022-10-18T09:51:51.879Z,98.08
2022-10-18T09:54:31.160Z,98.45
2022-10-18T09:57:05.500Z,98.17
2022-10-18T09:59:42.219Z,98.04
2022-10-18T10:02:16.029Z,98.08
2022-10-18T10:04:44.262Z,97.95
2022-10-18T10:07:17.321Z,97.93
2022-10-18T10:09:49.801Z,97.91
2022-10-18T10:12:31.730Z,97.96
2022-10-18T10:15:20.458Z,97.49
2022-10-18T10:17:58.566Z,97.53
2022-10-18T10:20:36.216Z,97.25
2022-10-18T10:23:10.728Z,97.27
2022-10-18T10:25:42.510Z,96.85
2022-10-18T10:28:18.157Z,97.26
2022-10-18T10:30:46.469Z,97.09
2022-10-18T10:33:34.266Z,96.73
2022-10-18T10:36:05.400Z,96.53
2022-10-18T10:38:34.107Z,96.14
2022-10-18T10:41:03.683Z,95.79
2022-10-18T10:43:39.197Z,95.54
2022-10-18T10:46:11.102Z,95.58
2022-10-18T10:48:50.451Z,95.19
2022-10-18T10:51:30.408Z,95.02
2022-10-18T10:54:04.599Z,94.69
2022-10-18T10:56:37.446Z,94.52
2022-10-18T10:59:17.225Z,94.18
2022-10-18T11:01:47.739Z,93.34
2022-10-18T11:04:28.810Z,93.05
2022-10-18T11:07:12.468Z,92.32
2022-10-18T11:09:53.146Z,92.14
2022-10-18T11:12:35.317Z,91.63
2022-10-18T11:15:22.320Z,90.86
2022-10-18T11:18:05.867Z,89.67
2022-10-18T11:20:38.484Z,88.29
2022-10-18T11:23:09.119Z,86.73
2022-10-18T11:26:02.430Z,86.65
2022-10-18T11:28:52.790Z,85.77
2022-10-18T11:31:31.415Z,84.97
2022-10-18T11:34:22.184Z,83.89
2022-10-18T11:37:23.003Z,83.23
2022-10-18T11:39:57.743Z,82.53
2022-10-18T11:42:39.140Z,81.92
2022-10-18T11:45:28.620Z,81.27
2022-10-18T11:48:06.764Z,80.71
2022-10-18T11:50:41.776Z,80.07
2022-10-18T11:53:24.233Z,79.61
2022-10-18T11:56:03.510Z,78.63
2022-10-18T11:58:50.105Z,77.83
2022-10-18T12:01:29.073Z,77.19
2022-10-18T12:04:04.742Z,76.26
2022-10-18T12:06:38.811Z,75.79
2022-10-18T12:09:17.994Z,75.55
2022-10-18T12:11:55.756Z,74.51
2022-10-18T12:14:29.364Z,73.73
2022-10-18T12:17:39.713Z,73.58
2022-10-18T12:19:56.655Z,74.01
2022-10-18T12:22:30.406Z,73.41
2022-10-18T12:24:58.671Z,72.91
2022-10-18T12:27:38.955Z,72.11
2022-10-18T12:30:20.112Z,72.10
2022-10-18T12:33:03.322Z,71.37
2022-10-18T12:35:53.887Z,70.67
2022-10-18T12:38:26.989Z,69.71
2022-10-18T12:40:56.623Z,69.68
2022-10-18T12:43:27.494Z,68.28
2022-10-18T12:45:58.609Z,67.97
2022-10-18T12:48:38.724Z,68.44
2022-10-18T12:51:15.233Z,68.21
2022-10-18T12:53:45.249Z,67.43
2022-10-18T12:56:42.064Z,65.50
2022-10-18T12:59:49.730Z,64.16
2022-10-18T13:02:36.051Z,62.67
2022-10-18T13:05:56.318Z,61.77
2022-10-18T13:08:42.772Z,60.02
2022-10-18T13:11:35.946Z,59.13
2022-10-18T13:14:35.507Z,59.63
2022-10-18T13:17:16.187Z,59.54
2022-10-18T13:20:20.486Z,57.86
2022-10-18T13:23:09.378Z,56.92
2022-10-18T13:25:52.312Z,54.78
2022-10-18T13:28:30.828Z,54.26
2022-10-18T13:31:11.668Z,55.32
2022-10-18T13:33:41.710Z,55.85
2022-10-18T13:36:25.596Z,56.82
2022-10-18T13:39:04.933Z,58.18
2022-10-18T13:42:14.987Z,59.14
2022-10-18T13:44:46.371Z,59.62
2022-10-18T13:47:16.932Z,59.86
2022-10-18T13:53:36.838Z,61.25
2022-10-18T13:56:30.835Z,61.41
2022-10-18T13:59:18.436Z,61.79
2022-10-18T14:02:04.728Z,62.13
2022-10-18T14:04:48.919Z,62.87
2022-10-18T14:07:19.421Z,63.29
2022-10-18T14:09:54.966Z,64.04
2022-10-18T14:12:30.527Z,64.18
2022-10-18T14:15:05.687Z,64.52
2022-10-18T14:17:42.690Z,63.79
2022-10-18T14:20:27.209Z,63.99
2022-10-18T14:23:06.057Z,63.59
2022-10-18T14:25:36.886Z,63.69
2022-10-18T14:28:14.176Z,64.14
2022-10-18T14:30:57.671Z,64.06
2022-10-18T14:33:32.962Z,64.19
2022-10-18T14:36:09.203Z,64.25
2022-10-18T14:38:49.148Z,64.71
2022-10-18T14:41:21.713Z,64.42
2022-10-18T14:43:50.827Z,64.34
2022-10-18T14:46:25.899Z,63.88
2022-10-18T14:48:58.126Z,63.81
2022-10-18T14:51:26.964Z,63.94
2022-10-18T14:53:56.997Z,63.49
2022-10-18T14:56:29.211Z,63.83
2022-10-18T14:58:59.854Z,64.10
2022-10-18T15:01:32.359Z,64.47
2022-10-18T15:04:06.478Z,65.08
2022-10-18T15:06:35.201Z,65.49
2022-10-18T15:09:05.619Z,65.85
2022-10-18T15:11:34.171Z,66.42
2022-10-18T15:14:06.758Z,66.94
2022-10-18T15:16:36.007Z,67.14
2022-10-18T15:19:08.186Z,67.37
2022-10-18T15:21:37.316Z,67.75
2022-10-18T15:24:27.620Z,67.84
2022-10-18T15:26:58.923Z,68.09
2022-10-18T15:29:32.308Z,68.16
2022-10-18T15:32:12.405Z,68.25
2022-10-18T15:34:41.929Z,68.31
2022-10-18T15:37:24.805Z,68.45
2022-10-18T15:40:38.470Z,68.57
2022-10-18T15:43:34.585Z,68.45
2022-10-18T15:46:06.686Z,68.27
2022-10-18T15:48:38.701Z,68.39
2022-10-18T15:51:13.868Z,67.97
2022-10-18T15:53:47.373Z,68.43
2022-10-18T15:56:33.210Z,68.66
2022-10-18T15:59:04.928Z,68.54
2022-10-18T16:01:39.579Z,68.58
2022-10-18T16:04:15.223Z,68.64
2022-10-18T16:06:44.771Z,68.78
2022-10-18T16:09:17.630Z,69.08
2022-10-18T16:11:47.004Z,69.31
2022-10-18T16:14:15.109Z,69.23
2022-10-18T16:16:43.204Z,69.66
2022-10-18T16:19:15.402Z,69.54
2022-10-18T16:21:45.781Z,70.11
2022-10-18T16:24:13.998Z,70.36
2022-10-18T16:26:42.385Z,70.63
2022-10-18T16:29:16.461Z,70.42
2022-10-18T16:31:46.559Z,70.53
2022-10-18T16:34:14.805Z,70.43
2022-10-18T16:36:44.864Z,70.38
2022-10-18T16:39:16.947Z,70.00
2022-10-18T16:41:45.218Z,69.82
2022-10-18T16:44:14.042Z,69.01
2022-10-18T16:46:42.495Z,69.25
2022-10-18T16:51:55.470Z,69.36
2022-10-18T16:54:23.909Z,69.04
2022-10-18T16:56:52.001Z,69.27
2022-10-18T16:59:29.633Z,68.98
2022-10-18T17:01:58.163Z,69.55
2022-10-18T17:04:26.372Z,69.22
2022-10-18T17:06:58.442Z,69.82
2022-10-18T17:09:26.853Z,69.59
2022-10-18T17:11:55.006Z,70.10
2022-10-18T17:14:23.198Z,69.71
2022-10-18T17:16:54.816Z,69.98
2022-10-18T17:19:24.258Z,70.35
2022-10-18T17:21:52.409Z,70.26
2022-10-18T17:24:21.867Z,69.93
2022-10-18T17:26:49.982Z,70.50
2022-10-18T17:29:18.042Z,70.67
2022-10-18T17:31:46.171Z,70.82
2022-10-18T17:34:21.162Z,71.15
2022-10-18T17:36:50.434Z,71.20
2022-10-18T17:39:18.477Z,71.29
2022-10-18T17:41:48.012Z,71.15
2022-10-18T17:44:16.309Z,71.50
2022-10-18T17:46:44.396Z,71.36
2022-10-18T17:49:13.977Z,71.34
2022-10-18T17:51:42.886Z,71.68
2022-10-18T17:54:11.254Z,71.65
2022-10-18T17:56:41.148Z,72.04
2022-10-18T17:59:10.864Z,71.75
2022-10-18T18:01:39.358Z,71.79
2022-10-18T18:04:07.843Z,72.33
2022-10-18T18:06:39.057Z,72.35
2022-10-18T18:09:14.726Z,72.35
2022-10-18T18:11:45.008Z,72.28
2022-10-18T18:14:16.033Z,72.89
2022-10-18T18:16:46.606Z,72.94
2022-10-18T18:19:17.560Z,72.85
2022-10-18T18:21:46.103Z,73.13
2022-10-18T18:24:15.593Z,73.36
2022-10-18T18:26:44.386Z,73.54
2022-10-18T18:29:15.951Z,73.48
2022-10-18T18:31:44.047Z,73.03
2022-10-18T18:34:12.553Z,73.14
2022-10-18T18:36:41.345Z,73.68
2022-10-18T18:39:09.859Z,73.10
2022-10-18T18:41:38.665Z,73.18
2022-10-18T18:44:07.672Z,73.47
2022-10-18T18:46:39.097Z,73.61
2022-10-18T18:49:08.414Z,73.63
2022-10-18T18:51:39.723Z,73.69
2022-10-18T18:54:08.808Z,73.36
2022-10-18T18:56:37.491Z,73.77
2022-10-18T18:59:06.855Z,74.63
2022-10-18T19:01:39.027Z,73.98
2022-10-18T19:04:09.426Z,74.12
2022-10-18T19:06:40.118Z,73.92
2022-10-18T19:09:13.101Z,74.63
2022-10-18T19:11:41.542Z,74.15
2022-10-18T19:14:09.737Z,74.60
2022-10-18T19:16:41.052Z,74.36
2022-10-18T19:19:12.820Z,74.44
2022-10-18T19:21:43.476Z,74.92
2022-10-18T19:24:11.912Z,74.80
2022-10-18T19:26:44.783Z,74.86
2022-10-18T19:29:16.198Z,74.53
2022-10-18T19:31:46.650Z,74.46
2022-10-18T19:34:16.366Z,74.54
2022-10-18T19:36:46.555Z,74.86
2022-10-18T19:39:20.296Z,74.30
2022-10-18T19:41:50.626Z,74.24
2022-10-18T19:44:20.455Z,74.80
2022-10-18T19:46:50.742Z,74.67
2022-10-18T19:49:19.073Z,74.93
2022-10-18T19:51:48.012Z,74.26
2022-10-18T19:54:17.073Z,74.58
2022-10-18T19:56:45.747Z,75.16
2022-10-18T19:59:15.910Z,74.80
2022-10-18T20:01:44.751Z,74.86
2022-10-18T20:04:15.442Z,74.85
2022-10-18T20:06:45.465Z,74.86
2022-10-18T20:09:19.344Z,74.99
2022-10-18T20:11:49.010Z,75.32
2022-10-18T20:14:17.260Z,75.61
2022-10-18T20:16:45.538Z,75.51
2022-10-18T20:19:15.156Z,75.19
2022-10-18T20:21:43.322Z,75.18
2022-10-18T20:24:12.771Z,75.57
2022-10-18T20:26:41.061Z,75.36
2022-10-18T20:29:09.337Z,75.26
2022-10-18T20:31:39.159Z,75.69
2022-10-18T20:34:10.984Z,75.55
2022-10-18T20:36:41.033Z,76.13
2022-10-18T20:39:09.677Z,76.31
2022-10-18T20:41:41.060Z,76.30
2022-10-18T20:44:14.336Z,76.61
2022-10-18T20:46:43.501Z,76.72
2022-10-18T20:49:15.045Z,76.74
2022-10-18T20:51:44.580Z,76.85
2022-10-18T20:54:13.460Z,76.94
2022-10-18T20:56:41.661Z,77.59
2022-10-18T20:59:11.441Z,77.56
2022-10-18T21:01:40.744Z,77.82
2022-10-18T21:04:11.593Z,78.70
2022-10-18T21:06:42.761Z,78.77
2022-10-18T21:09:14.497Z,78.37
2022-10-18T21:11:44.887Z,79.33
2022-10-18T21:14:15.184Z,79.11
2022-10-18T21:16:43.995Z,79.31
2022-10-18T21:19:15.062Z,79.55
2022-10-18T21:21:46.499Z,80.03
2022-10-18T21:24:20.648Z,80.14
2022-10-18T21:26:49.535Z,80.73
2022-10-18T21:29:21.988Z,80.84
2022-10-18T21:31:54.256Z,81.29
2022-10-18T21:34:22.685Z,82.05
2022-10-18T21:36:50.825Z,81.92
2022-10-18T21:41:52.469Z,82.55
2022-10-18T21:44:20.754Z,82.72
2022-10-18T21:46:49.054Z,83.21
2022-10-18T21:49:17.908Z,83.44
2022-10-18T21:51:46.223Z,83.74
2022-10-18T21:54:16.733Z,83.95
2022-10-18T21:56:46.203Z,84.25
2022-10-18T21:59:14.776Z,84.69
2022-10-18T22:01:44.150Z,84.85
2022-10-18T22:04:21.469Z,84.96
2022-10-18T22:06:50.346Z,85.36
2022-10-18T22:09:19.731Z,85.44
2022-10-18T22:11:53.519Z,85.44
2022-10-18T22:14:22.133Z,86.04
2022-10-18T22:16:50.746Z,86.09
2022-10-18T22:19:18.999Z,86.18
2022-10-18T22:21:47.129Z,86.24
2022-10-18T22:24:15.231Z,86.34
2022-10-18T22:26:44.971Z,86.78
2022-10-18T22:29:16.823Z,86.89
2022-10-18T22:31:48.187Z,86.81
2022-10-18T22:34:19.462Z,86.97
2022-10-18T22:36:47.749Z,87.21
2022-10-18T22:39:16.816Z,87.26
2022-10-18T22:41:46.447Z,87.27
2022-10-18T22:44:16.285Z,87.37
2022-10-18T22:46:44.594Z,87.21
2022-10-18T22:49:13.595Z,87.13
2022-10-18T22:51:41.930Z,87.11
2022-10-18T22:54:10.314Z,87.05
2022-10-18T22:56:38.445Z,87.20
2022-10-18T22:59:06.561Z,87.17
2022-10-18T23:01:36.167Z,87.09
2022-10-18T23:04:04.433Z,87.36
2022-10-18T23:06:34.654Z,87.25
2022-10-18T23:09:07.451Z,87.02
2022-10-18T23:11:37.346Z,87.47
2022-10-18T23:14:07.131Z,87.39
2022-10-18T23:16:37.535Z,87.31
2022-10-18T23:19:06.512Z,87.28
2022-10-18T23:21:35.248Z,87.28
2022-10-18T23:24:03.413Z,87.23
2022-10-18T23:26:31.532Z,87.06
2022-10-18T23:28:59.954Z,87.00
2022-10-18T23:31:30.908Z,86.93
2022-10-18T23:34:02.690Z,86.89
2022-10-18T23:36:32.320Z,86.97
2022-10-18T23:39:00.893Z,86.74
2022-10-18T23:41:29.241Z,86.57
2022-10-18T23:43:57.931Z,86.80
2022-10-18T23:46:26.195Z,86.97
2022-10-18T23:48:54.300Z,87.15
2022-10-18T23:51:23.780Z,86.96
2022-10-18T23:53:51.893Z,86.94
2022-10-18T23:56:20.148Z,86.53
2022-10-18T23:58:48.271Z,86.93
